Terminal Aerodrome Forecast
Issued by NWS Corpus Christi, TX

Home | Current Version | Previous Version | Text Only | Print | Product List | Glossary On
Versions: 1 2 3 4 5 6 7 8 9 10 11 12 13 14 15
000
FTUS44 KCRP 202100 AAB
TAFCRP
TAF AMD
KCRP 202135Z 2022/2118 16009KT P6SM -RA SCT013 BKN025 OVC035
      TEMPO 2022/2102 5SM -RA SCT008 OVC018
     FM210200 15014KT P6SM VCSH BKN015 BKN050
     FM210700 16010KT P6SM OVC015
     FM211400 15012G20KT P6SM OVC025=

USA.gov is the U.S. government's official web portal to all federal, state and local government web resources and services.